sensor_id;sensor_type;location;lat;lon;timestamp;noise_LAeq;noise_LA_min;noise_LA_max;noise_LA01;noise_LA95
69615;Laerm;56821;52.486;4.680;2023-08-12T00:00:09;48.57;47.45;49.56;;
69615;Laerm;56821;52.486;4.680;2023-08-12T00:00:23;48.57;47.41;49.79;;
69615;Laerm;56821;52.486;4.680;2023-08-12T00:00:33;48.62;47.65;50.16;;
69615;Laerm;56821;52.486;4.680;2023-08-12T00:00:44;48.52;47.32;49.46;;
69615;Laerm;56821;52.486;4.680;2023-08-12T00:00:54;48.58;47.32;49.93;;
69615;Laerm;56821;52.486;4.680;2023-08-12T00:01:04;48.55;47.36;49.68;;
69615;Laerm;56821;52.486;4.680;2023-08-12T00:01:15;48.49;47.42;49.68;;
69615;Laerm;56821;52.486;4.680;2023-08-12T00:01:26;48.52;47.41;49.86;;
69615;Laerm;56821;52.486;4.680;2023-08-12T00:01:37;48.55;47.55;49.98;;
69615;Laerm;56821;52.486;4.680;2023-08-12T00:01:47;48.68;47.50;49.75;;
69615;Laerm;56821;52.486;4.680;2023-08-12T00:01:57;48.71;47.78;49.98;;
69615;Laerm;56821;52.486;4.680;2023-08-12T00:02:07;48.47;47.54;49.64;;
69615;Laerm;56821;52.486;4.680;2023-08-12T00:02:17;48.51;46.83;49.75;;
69615;Laerm;56821;52.486;4.680;2023-08-12T00:02:28;48.68;47.68;49.73;;
69615;Laerm;56821;52.486;4.680;2023-08-12T00:02:41;48.48;47.43;49.99;;
69615;Laerm;56821;52.486;4.680;2023-08-12T00:02:52;48.51;47.25;50.19;;
69615;Laerm;56821;52.486;4.680;2023-08-12T00:03:03;48.56;47.55;50.00;;
69615;Laerm;56821;52.486;4.680;2023-08-12T00:03:13;48.45;47.41;49.72;;
69615;Laerm;56821;52.486;4.680;2023-08-12T00:03:23;48.48;47.09;49.82;;
69615;Laerm;56821;52.486;4.680;2023-08-12T00:03:34;48.57;47.28;49.67;;
69615;Laerm;56821;52.486;4.680;2023-08-12T00:03:44;48.69;47.40;49.84;;
69615;Laerm;56821;52.486;4.680;2023-08-12T00:03:54;48.42;47.36;49.60;;
69615;Laerm;56821;52.486;4.680;2023-08-12T00:04:05;48.49;47.38;49.51;;
69615;Laerm;56821;52.486;4.680;2023-08-12T00:04:15;48.52;47.32;49.87;;
69615;Laerm;56821;52.486;4.680;2023-08-12T00:04:26;48.52;47.28;49.84;;
69615;Laerm;56821;52.486;4.680;2023-08-12T00:04:36;48.55;47.55;49.63;;
69615;Laerm;56821;52.486;4.680;2023-08-12T00:04:46;48.41;47.36;49.61;;
69615;Laerm;56821;52.486;4.680;2023-08-12T00:04:57;48.33;47.10;49.60;;
69615;Laerm;56821;52.486;4.680;2023-08-12T00:05:08;48.45;47.27;49.61;;
69615;Laerm;56821;52.486;4.680;2023-08-12T00:05:21;48.32;47.23;49.39;;
69615;Laerm;56821;52.486;4.680;2023-08-12T00:05:31;48.36;47.13;50.43;;
69615;Laerm;56821;52.486;4.680;2023-08-12T00:05:41;48.47;47.26;49.58;;
69615;Laerm;56821;52.486;4.680;2023-08-12T00:05:53;48.59;47.49;49.83;;
69615;Laerm;56821;52.486;4.680;2023-08-12T00:06:03;48.55;47.29;49.72;;
69615;Laerm;56821;52.486;4.680;2023-08-12T00:06:15;48.72;47.50;49.84;;
69615;Laerm;56821;52.486;4.680;2023-08-12T00:06:25;48.50;47.11;49.70;;
69615;Laerm;56821;52.486;4.680;2023-08-12T00:06:36;48.57;47.25;50.04;;
69615;Laerm;56821;52.486;4.680;2023-08-12T00:06:46;48.55;47.31;50.41;;
69615;Laerm;56821;52.486;4.680;2023-08-12T00:06:56;48.42;47.41;49.73;;
69615;Laerm;56821;52.486;4.680;2023-08-12T00:07:06;48.47;47.51;49.59;;
69615;Laerm;56821;52.486;4.680;2023-08-12T00:07:17;48.70;47.67;49.80;;
69615;Laerm;56821;52.486;4.680;2023-08-12T00:07:27;48.57;47.66;50.20;;
69615;Laerm;56821;52.486;4.680;2023-08-12T00:07:38;48.64;47.49;49.96;;
69615;Laerm;56821;52.486;4.680;2023-08-12T00:07:48;48.61;47.36;49.74;;
69615;Laerm;56821;52.486;4.680;2023-08-12T00:07:59;48.75;47.66;50.08;;
69615;Laerm;56821;52.486;4.680;2023-08-12T00:08:09;48.50;47.38;49.48;;
69615;Laerm;56821;52.486;4.680;2023-08-12T00:08:19;48.26;47.30;49.76;;
69615;Laerm;56821;52.486;4.680;2023-08-12T00:08:29;48.66;47.36;50.17;;
69615;Laerm;56821;52.486;4.680;2023-08-12T00:08:40;48.52;47.29;50.07;;
69615;Laerm;56821;52.486;4.680;2023-08-12T00:08:50;48.36;47.30;49.39;;
69615;Laerm;56821;52.486;4.680;2023-08-12T00:09:00;48.44;47.13;49.99;;
69615;Laerm;56821;52.486;4.680;2023-08-12T00:09:11;48.38;47.33;49.99;;
69615;Laerm;56821;52.486;4.680;2023-08-12T00:09:25;48.20;47.11;49.60;;
69615;Laerm;56821;52.486;4.680;2023-08-12T00:09:35;48.26;46.93;49.26;;
69615;Laerm;56821;52.486;4.680;2023-08-12T00:09:45;48.19;47.12;49.53;;
69615;Laerm;56821;52.486;4.680;2023-08-12T00:09:55;48.21;47.13;49.30;;
69615;Laerm;56821;52.486;4.680;2023-08-12T00:10:07;48.44;47.37;49.51;;
69615;Laerm;56821;52.486;4.680;2023-08-12T00:10:17;48.28;47.08;49.99;;
69615;Laerm;56821;52.486;4.680;2023-08-12T00:10:27;48.47;46.69;49.91;;
69615;Laerm;56821;52.486;4.680;2023-08-12T00:10:38;48.77;47.51;50.24;;
69615;Laerm;56821;52.486;4.680;2023-08-12T00:10:48;48.66;47.46;49.95;;
69615;Laerm;56821;52.486;4.680;2023-08-12T00:10:58;48.80;47.47;49.80;;
69615;Laerm;56821;52.486;4.680;2023-08-12T00:11:08;48.60;47.58;50.00;;
69615;Laerm;56821;52.486;4.680;2023-08-12T00:11:19;48.32;47.28;49.69;;
69615;Laerm;56821;52.486;4.680;2023-08-12T00:11:29;48.56;47.25;49.67;;
69615;Laerm;56821;52.486;4.680;2023-08-12T00:11:39;48.84;47.20;50.35;;
69615;Laerm;56821;52.486;4.680;2023-08-12T00:11:49;48.45;47.12;49.65;;
69615;Laerm;56821;52.486;4.680;2023-08-12T00:12:00;48.45;46.94;49.79;;
69615;Laerm;56821;52.486;4.680;2023-08-12T00:12:10;48.44;47.27;50.30;;
69615;Laerm;56821;52.486;4.680;2023-08-12T00:12:20;48.67;47.23;50.12;;
69615;Laerm;56821;52.486;4.680;2023-08-12T00:12:33;48.41;47.30;49.77;;
69615;Laerm;56821;52.486;4.680;2023-08-12T00:12:44;48.67;47.35;49.88;;
69615;Laerm;56821;52.486;4.680;2023-08-12T00:12:54;48.72;47.42;49.99;;
69615;Laerm;56821;52.486;4.680;2023-08-12T00:13:04;48.89;47.71;50.03;;
69615;Laerm;56821;52.486;4.680;2023-08-12T00:13:15;48.60;47.44;50.23;;
69615;Laerm;56821;52.486;4.680;2023-08-12T00:13:27;48.73;47.49;50.20;;
69615;Laerm;56821;52.486;4.680;2023-08-12T00:13:37;48.97;47.81;50.03;;
69615;Laerm;56821;52.486;4.680;2023-08-12T00:13:48;48.66;47.33;49.93;;
69615;Laerm;56821;52.486;4.680;2023-08-12T00:13:58;48.67;47.32;50.27;;
69615;Laerm;56821;52.486;4.680;2023-08-12T00:14:08;48.67;47.48;49.96;;
69615;Laerm;56821;52.486;4.680;2023-08-12T00:14:18;48.52;47.07;49.97;;
69615;Laerm;56821;52.486;4.680;2023-08-12T00:14:29;48.83;46.95;50.14;;
69615;Laerm;56821;52.486;4.680;2023-08-12T00:14:39;48.81;47.68;49.92;;
69615;Laerm;56821;52.486;4.680;2023-08-12T00:14:50;48.56;47.35;50.08;;
69615;Laerm;56821;52.486;4.680;2023-08-12T00:15:00;48.82;47.38;49.96;;
69615;Laerm;56821;52.486;4.680;2023-08-12T00:15:11;48.89;47.00;50.16;;
69615;Laerm;56821;52.486;4.680;2023-08-12T00:15:21;48.86;47.36;49.71;;
69615;Laerm;56821;52.486;4.680;2023-08-12T00:15:31;48.99;47.41;50.81;;
69615;Laerm;56821;52.486;4.680;2023-08-12T00:15:41;48.59;47.61;50.00;;
69615;Laerm;56821;52.486;4.680;2023-08-12T00:15:53;48.48;47.52;49.67;;
69615;Laerm;56821;52.486;4.680;2023-08-12T00:16:03;48.84;47.79;49.87;;
69615;Laerm;56821;52.486;4.680;2023-08-12T00:16:13;48.18;46.10;49.75;;
69615;Laerm;56821;52.486;4.680;2023-08-12T00:16:23;47.30;46.25;48.39;;
69615;Laerm;56821;52.486;4.680;2023-08-12T00:16:34;47.27;46.27;48.33;;
69615;Laerm;56821;52.486;4.680;2023-08-12T00:16:44;48.59;46.53;50.67;;
69615;Laerm;56821;52.486;4.680;2023-08-12T00:16:54;48.89;47.87;49.88;;
69615;Laerm;56821;52.486;4.680;2023-08-12T00:17:04;48.77;47.71;50.19;;
69615;Laerm;56821;52.486;4.680;2023-08-12T00:17:15;48.94;47.67;50.08;;
69615;Laerm;56821;52.486;4.680;2023-08-12T00:17:25;47.73;46.17;49.79;;
69615;Laerm;56821;52.486;4.680;2023-08-12T00:17:35;48.27;46.38;49.78;;
69615;Laerm;56821;52.486;4.680;2023-08-12T00:17:47;48.89;47.92;49.96;;
69615;Laerm;56821;52.486;4.680;2023-08-12T00:17:57;48.80;47.83;49.97;;
69615;Laerm;56821;52.486;4.680;2023-08-12T00:18:07;48.70;47.54;49.68;;
69615;Laerm;56821;52.486;4.680;2023-08-12T00:18:19;48.63;47.44;49.68;;
69615;Laerm;56821;52.486;4.680;2023-08-12T00:18:29;48.84;47.93;49.99;;
69615;Laerm;56821;52.486;4.680;2023-08-12T00:18:39;48.92;47.94;49.93;;
69615;Laerm;56821;52.486;4.680;2023-08-12T00:18:49;48.90;47.84;49.99;;
69615;Laerm;56821;52.486;4.680;2023-08-12T00:19:00;47.75;46.37;49.88;;
69615;Laerm;56821;52.486;4.680;2023-08-12T00:19:10;47.21;46.29;48.00;;
69615;Laerm;56821;52.486;4.680;2023-08-12T00:19:21;47.25;46.44;48.23;;
69615;Laerm;56821;52.486;4.680;2023-08-12T00:19:31;48.35;46.31;50.03;;
69615;Laerm;56821;52.486;4.680;2023-08-12T00:19:41;48.90;47.92;49.99;;
69615;Laerm;56821;52.486;4.680;2023-08-12T00:19:52;48.89;47.79;50.02;;
69615;Laerm;56821;52.486;4.680;2023-08-12T00:20:03;48.88;46.98;49.90;;
69615;Laerm;56821;52.486;4.680;2023-08-12T00:20:16;48.88;47.66;49.82;;
69615;Laerm;56821;52.486;4.680;2023-08-12T00:20:26;48.87;47.45;49.69;;
69615;Laerm;56821;52.486;4.680;2023-08-12T00:20:37;48.89;47.86;49.98;;
69615;Laerm;56821;52.486;4.680;2023-08-12T00:20:48;48.87;47.95;49.83;;
69615;Laerm;56821;52.486;4.680;2023-08-12T00:20:58;48.88;47.79;50.23;;
69615;Laerm;56821;52.486;4.680;2023-08-12T00:21:09;48.67;47.63;49.80;;
69615;Laerm;56821;52.486;4.680;2023-08-12T00:21:20;48.90;47.84;49.97;;
69615;Laerm;56821;52.486;4.680;2023-08-12T00:21:30;48.90;47.79;50.08;;
69615;Laerm;56821;52.486;4.680;2023-08-12T00:21:40;48.85;47.69;49.88;;
69615;Laerm;56821;52.486;4.680;2023-08-12T00:21:50;48.90;47.75;49.76;;
69615;Laerm;56821;52.486;4.680;2023-08-12T00:22:02;48.89;47.67;49.75;;
69615;Laerm;56821;52.486;4.680;2023-08-12T00:22:14;48.81;47.84;49.83;;
69615;Laerm;56821;52.486;4.680;2023-08-12T00:22:25;48.90;47.58;49.87;;
69615;Laerm;56821;52.486;4.680;2023-08-12T00:22:35;48.89;47.89;49.88;;
69615;Laerm;56821;52.486;4.680;2023-08-12T00:22:46;48.87;47.76;49.93;;
69615;Laerm;56821;52.486;4.680;2023-08-12T00:22:56;48.89;47.93;49.85;;
69615;Laerm;56821;52.486;4.680;2023-08-12T00:23:06;48.87;47.73;49.87;;
69615;Laerm;56821;52.486;4.680;2023-08-12T00:23:16;48.85;47.91;49.77;;
69615;Laerm;56821;52.486;4.680;2023-08-12T00:23:27;48.84;47.72;49.76;;
69615;Laerm;56821;52.486;4.680;2023-08-12T00:23:37;48.86;47.95;49.89;;
69615;Laerm;56821;52.486;4.680;2023-08-12T00:23:49;48.87;47.60;50.16;;
69615;Laerm;56821;52.486;4.680;2023-08-12T00:24:00;48.90;48.06;50.01;;
69615;Laerm;56821;52.486;4.680;2023-08-12T00:24:10;48.88;47.72;49.94;;
69615;Laerm;56821;52.486;4.680;2023-08-12T00:24:20;48.85;47.80;49.74;;
69615;Laerm;56821;52.486;4.680;2023-08-12T00:24:30;48.81;47.47;49.78;;
69615;Laerm;56821;52.486;4.680;2023-08-12T00:24:41;48.52;47.47;49.54;;
69615;Laerm;56821;52.486;4.680;2023-08-12T00:24:51;48.39;47.21;49.61;;
69615;Laerm;56821;52.486;4.680;2023-08-12T00:25:02;48.40;47.50;49.44;;
69615;Laerm;56821;52.486;4.680;2023-08-12T00:25:13;48.43;47.33;49.50;;
69615;Laerm;56821;52.486;4.680;2023-08-12T00:25:23;48.47;47.34;49.56;;
69615;Laerm;56821;52.486;4.680;2023-08-12T00:25:33;48.38;47.27;49.61;;
69615;Laerm;56821;52.486;4.680;2023-08-12T00:25:43;48.43;47.46;49.66;;
69615;Laerm;56821;52.486;4.680;2023-08-12T00:25:57;48.42;47.34;49.60;;
69615;Laerm;56821;52.486;4.680;2023-08-12T00:26:07;48.38;47.29;49.61;;
69615;Laerm;56821;52.486;4.680;2023-08-12T00:26:18;48.44;47.05;49.47;;
69615;Laerm;56821;52.486;4.680;2023-08-12T00:26:28;48.41;47.17;49.52;;
69615;Laerm;56821;52.486;4.680;2023-08-12T00:26:38;48.40;47.14;49.28;;
69615;Laerm;56821;52.486;4.680;2023-08-12T00:26:48;48.41;47.47;49.22;;
69615;Laerm;56821;52.486;4.680;2023-08-12T00:26:59;48.41;47.55;49.45;;
69615;Laerm;56821;52.486;4.680;2023-08-12T00:27:09;48.48;47.12;49.67;;
69615;Laerm;56821;52.486;4.680;2023-08-12T00:27:20;48.47;47.52;49.63;;
69615;Laerm;56821;52.486;4.680;2023-08-12T00:27:30;48.52;47.63;49.67;;
69615;Laerm;56821;52.486;4.680;2023-08-12T00:27:40;48.48;47.28;49.65;;
69615;Laerm;56821;52.486;4.680;2023-08-12T00:27:50;48.56;47.51;49.40;;
69615;Laerm;56821;52.486;4.680;2023-08-12T00:28:01;48.53;47.42;49.54;;
69615;Laerm;56821;52.486;4.680;2023-08-12T00:28:11;48.44;47.30;49.66;;
69615;Laerm;56821;52.486;4.680;2023-08-12T00:28:22;48.67;47.72;49.73;;
69615;Laerm;56821;52.486;4.680;2023-08-12T00:28:33;48.54;47.04;49.78;;
69615;Laerm;56821;52.486;4.680;2023-08-12T00:28:43;48.23;47.02;49.35;;
69615;Laerm;56821;52.486;4.680;2023-08-12T00:28:53;48.21;47.14;49.19;;
69615;Laerm;56821;52.486;4.680;2023-08-12T00:29:04;48.22;47.30;49.07;;
69615;Laerm;56821;52.486;4.680;2023-08-12T00:29:14;48.24;47.09;49.06;;
69615;Laerm;56821;52.486;4.680;2023-08-12T00:29:24;48.22;47.17;49.12;;
69615;Laerm;56821;52.486;4.680;2023-08-12T00:29:35;48.25;47.24;49.39;;
69615;Laerm;56821;52.486;4.680;2023-08-12T00:29:45;48.25;46.84;49.68;;
69615;Laerm;56821;52.486;4.680;2023-08-12T00:29:55;48.24;47.17;49.20;;
69615;Laerm;56821;52.486;4.680;2023-08-12T00:30:05;48.23;47.16;49.11;;
69615;Laerm;56821;52.486;4.680;2023-08-12T00:30:16;48.24;47.25;49.44;;
69615;Laerm;56821;52.486;4.680;2023-08-12T00:30:26;48.23;47.31;49.50;;
69615;Laerm;56821;52.486;4.680;2023-08-12T00:30:36;48.23;47.33;49.07;;
69615;Laerm;56821;52.486;4.680;2023-08-12T00:30:47;48.27;47.17;49.36;;
69615;Laerm;56821;52.486;4.680;2023-08-12T00:30:58;48.11;46.93;49.08;;
69615;Laerm;56821;52.486;4.680;2023-08-12T00:31:08;48.19;47.28;49.24;;
69615;Laerm;56821;52.486;4.680;2023-08-12T00:31:18;48.23;47.25;49.26;;
69615;Laerm;56821;52.486;4.680;2023-08-12T00:31:29;48.22;47.18;49.31;;
69615;Laerm;56821;52.486;4.680;2023-08-12T00:31:39;48.25;47.17;49.27;;
69615;Laerm;56821;52.486;4.680;2023-08-12T00:31:49;48.23;47.32;49.27;;
69615;Laerm;56821;52.486;4.680;2023-08-12T00:32:00;48.25;47.32;49.20;;
69615;Laerm;56821;52.486;4.680;2023-08-12T00:32:10;48.23;47.08;49.10;;
69615;Laerm;56821;52.486;4.680;2023-08-12T00:32:20;48.26;47.29;49.28;;
69615;Laerm;56821;52.486;4.680;2023-08-12T00:32:30;48.26;47.29;49.21;;
69615;Laerm;56821;52.486;4.680;2023-08-12T00:32:41;48.25;47.25;49.29;;
69615;Laerm;56821;52.486;4.680;2023-08-12T00:32:51;48.24;47.12;49.38;;
69615;Laerm;56821;52.486;4.680;2023-08-12T00:33:02;48.20;47.37;49.16;;
69615;Laerm;56821;52.486;4.680;2023-08-12T00:33:12;48.21;47.38;49.17;;
69615;Laerm;56821;52.486;4.680;2023-08-12T00:33:22;48.26;47.22;49.21;;
69615;Laerm;56821;52.486;4.680;2023-08-12T00:33:32;48.21;47.15;49.03;;
69615;Laerm;56821;52.486;4.680;2023-08-12T00:33:43;48.22;47.27;49.10;;
69615;Laerm;56821;52.486;4.680;2023-08-12T00:33:53;48.26;46.96;49.65;;
69615;Laerm;56821;52.486;4.680;2023-08-12T00:34:03;48.23;47.30;49.26;;
69615;Laerm;56821;52.486;4.680;2023-08-12T00:34:13;48.25;47.14;49.27;;
69615;Laerm;56821;52.486;4.680;2023-08-12T00:34:24;48.23;47.20;49.45;;
69615;Laerm;56821;52.486;4.680;2023-08-12T00:34:34;48.27;47.16;49.15;;
69615;Laerm;56821;52.486;4.680;2023-08-12T00:34:44;48.25;47.15;49.11;;
69615;Laerm;56821;52.486;4.680;2023-08-12T00:34:55;48.24;46.83;49.04;;
69615;Laerm;56821;52.486;4.680;2023-08-12T00:35:05;48.21;47.17;49.39;;
69615;Laerm;56821;52.486;4.680;2023-08-12T00:35:15;48.26;47.44;49.30;;
69615;Laerm;56821;52.486;4.680;2023-08-12T00:35:26;48.27;47.19;49.21;;
69615;Laerm;56821;52.486;4.680;2023-08-12T00:35:36;48.27;46.80;49.38;;
69615;Laerm;56821;52.486;4.680;2023-08-12T00:35:46;48.31;47.46;49.24;;
69615;Laerm;56821;52.486;4.680;2023-08-12T00:35:56;48.20;47.20;49.10;;
69615;Laerm;56821;52.486;4.680;2023-08-12T00:36:07;48.25;47.38;49.21;;
69615;Laerm;56821;52.486;4.680;2023-08-12T00:36:17;48.24;47.16;49.18;;
69615;Laerm;56821;52.486;4.680;2023-08-12T00:36:27;48.17;47.08;49.35;;
69615;Laerm;56821;52.486;4.680;2023-08-12T00:36:37;48.17;46.82;49.19;;
69615;Laerm;56821;52.486;4.680;2023-08-12T00:36:48;48.18;47.09;49.18;;
69615;Laerm;56821;52.486;4.680;2023-08-12T00:36:58;48.26;47.01;49.41;;
69615;Laerm;56821;52.486;4.680;2023-08-12T00:37:08;48.33;47.25;49.28;;
69615;Laerm;56821;52.486;4.680;2023-08-12T00:37:19;48.30;47.31;49.22;;
69615;Laerm;56821;52.486;4.680;2023-08-12T00:37:29;48.29;47.39;49.09;;
69615;Laerm;56821;52.486;4.680;2023-08-12T00:37:39;48.27;47.42;49.14;;
69615;Laerm;56821;52.486;4.680;2023-08-12T00:37:49;48.33;47.53;49.46;;
69615;Laerm;56821;52.486;4.680;2023-08-12T00:38:00;48.35;47.15;49.36;;
69615;Laerm;56821;52.486;4.680;2023-08-12T00:38:10;48.33;47.25;49.35;;
69615;Laerm;56821;52.486;4.680;2023-08-12T00:38:20;48.34;47.42;49.49;;
69615;Laerm;56821;52.486;4.680;2023-08-12T00:38:31;48.27;47.47;49.07;;
69615;Laerm;56821;52.486;4.680;2023-08-12T00:38:42;48.30;47.30;49.49;;
69615;Laerm;56821;52.486;4.680;2023-08-12T00:38:52;48.28;47.18;49.11;;
69615;Laerm;56821;52.486;4.680;2023-08-12T00:39:02;48.26;47.23;49.24;;
69615;Laerm;56821;52.486;4.680;2023-08-12T00:39:13;48.29;47.17;49.46;;
69615;Laerm;56821;52.486;4.680;2023-08-12T00:39:24;48.29;47.23;49.14;;
69615;Laerm;56821;52.486;4.680;2023-08-12T00:39:34;48.31;47.44;49.23;;
69615;Laerm;56821;52.486;4.680;2023-08-12T00:39:44;48.29;47.24;49.27;;
69615;Laerm;56821;52.486;4.680;2023-08-12T00:39:55;48.33;47.34;49.39;;
69615;Laerm;56821;52.486;4.680;2023-08-12T00:40:05;48.33;47.44;49.44;;
69615;Laerm;56821;52.486;4.680;2023-08-12T00:40:16;48.29;47.44;49.27;;
69615;Laerm;56821;52.486;4.680;2023-08-12T00:40:26;48.32;47.12;49.23;;
69615;Laerm;56821;52.486;4.680;2023-08-12T00:40:37;48.26;47.16;49.32;;
69615;Laerm;56821;52.486;4.680;2023-08-12T00:40:47;48.30;46.11;49.21;;
69615;Laerm;56821;52.486;4.680;2023-08-12T00:40:57;48.33;47.35;49.72;;
69615;Laerm;56821;52.486;4.680;2023-08-12T00:41:08;48.32;47.28;49.36;;
69615;Laerm;56821;52.486;4.680;2023-08-12T00:41:18;48.34;47.13;49.61;;
69615;Laerm;56821;52.486;4.680;2023-08-12T00:41:28;48.32;47.32;49.35;;
69615;Laerm;56821;52.486;4.680;2023-08-12T00:41:38;48.34;47.44;49.14;;
69615;Laerm;56821;52.486;4.680;2023-08-12T00:41:49;48.34;47.47;49.29;;
69615;Laerm;56821;52.486;4.680;2023-08-12T00:41:59;48.35;47.29;49.42;;
69615;Laerm;56821;52.486;4.680;2023-08-12T00:42:09;48.35;47.42;49.46;;
69615;Laerm;56821;52.486;4.680;2023-08-12T00:42:19;48.36;47.20;49.27;;
69615;Laerm;56821;52.486;4.680;2023-08-12T00:42:30;48.32;47.43;49.24;;
69615;Laerm;56821;52.486;4.680;2023-08-12T00:42:40;48.29;47.25;49.20;;
69615;Laerm;56821;52.486;4.680;2023-08-12T00:42:50;48.31;47.21;49.23;;
69615;Laerm;56821;52.486;4.680;2023-08-12T00:43:01;48.32;47.23;49.33;;
69615;Laerm;56821;52.486;4.680;2023-08-12T00:43:11;48.28;47.25;49.48;;
69615;Laerm;56821;52.486;4.680;2023-08-12T00:43:21;48.37;47.07;49.18;;
69615;Laerm;56821;52.486;4.680;2023-08-12T00:43:31;48.38;47.31;49.32;;
69615;Laerm;56821;52.486;4.680;2023-08-12T00:43:42;48.39;47.48;49.39;;
69615;Laerm;56821;52.486;4.680;2023-08-12T00:43:52;48.30;47.41;49.23;;
69615;Laerm;56821;52.486;4.680;2023-08-12T00:44:02;48.36;47.42;49.36;;
69615;Laerm;56821;52.486;4.680;2023-08-12T00:44:13;48.38;47.10;49.41;;
69615;Laerm;56821;52.486;4.680;2023-08-12T00:44:23;48.38;47.36;49.37;;
69615;Laerm;56821;52.486;4.680;2023-08-12T00:44:33;48.36;47.54;49.43;;
69615;Laerm;56821;52.486;4.680;2023-08-12T00:44:43;48.26;47.20;49.18;;
69615;Laerm;56821;52.486;4.680;2023-08-12T00:44:54;48.34;47.31;49.44;;
69615;Laerm;56821;52.486;4.680;2023-08-12T00:45:06;48.35;47.48;49.29;;
69615;Laerm;56821;52.486;4.680;2023-08-12T00:45:19;48.30;46.96;49.60;;
69615;Laerm;56821;52.486;4.680;2023-08-12T00:45:29;48.32;47.14;49.36;;
69615;Laerm;56821;52.486;4.680;2023-08-12T00:45:40;48.34;47.29;49.15;;
69615;Laerm;56821;52.486;4.680;2023-08-12T00:45:50;48.33;46.68;49.56;;
69615;Laerm;56821;52.486;4.680;2023-08-12T00:46:00;48.35;47.29;49.67;;
69615;Laerm;56821;52.486;4.680;2023-08-12T00:46:11;48.37;47.20;49.38;;
69615;Laerm;56821;52.486;4.680;2023-08-12T00:46:22;48.38;47.25;49.37;;
69615;Laerm;56821;52.486;4.680;2023-08-12T00:46:34;48.37;47.23;49.43;;
69615;Laerm;56821;52.486;4.680;2023-08-12T00:46:44;48.37;47.28;49.31;;
69615;Laerm;56821;52.486;4.680;2023-08-12T00:46:55;48.32;47.14;49.25;;
69615;Laerm;56821;52.486;4.680;2023-08-12T00:47:05;48.39;47.49;49.19;;
69615;Laerm;56821;52.486;4.680;2023-08-12T00:47:16;48.33;47.39;49.37;;
69615;Laerm;56821;52.486;4.680;2023-08-12T00:47:27;48.34;47.24;49.31;;
69615;Laerm;56821;52.486;4.680;2023-08-12T00:47:38;48.34;47.25;49.23;;
69615;Laerm;56821;52.486;4.680;2023-08-12T00:47:49;48.36;47.34;49.25;;
69615;Laerm;56821;52.486;4.680;2023-08-12T00:47:59;48.38;47.47;49.40;;
69615;Laerm;56821;52.486;4.680;2023-08-12T00:48:09;48.33;47.35;49.36;;
69615;Laerm;56821;52.486;4.680;2023-08-12T00:48:20;48.35;47.20;49.30;;
69615;Laerm;56821;52.486;4.680;2023-08-12T00:48:31;48.33;47.34;49.51;;
69615;Laerm;56821;52.486;4.680;2023-08-12T00:48:42;48.25;47.12;49.38;;
69615;Laerm;56821;52.486;4.680;2023-08-12T00:48:52;48.32;47.21;49.26;;
69615;Laerm;56821;52.486;4.680;2023-08-12T00:49:02;48.36;47.43;49.40;;
69615;Laerm;56821;52.486;4.680;2023-08-12T00:49:13;48.34;47.07;49.22;;
69615;Laerm;56821;52.486;4.680;2023-08-12T00:49:25;48.36;47.32;49.75;;
69615;Laerm;56821;52.486;4.680;2023-08-12T00:49:37;48.35;47.36;49.30;;
69615;Laerm;56821;52.486;4.680;2023-08-12T00:49:49;48.37;47.36;49.37;;
69615;Laerm;56821;52.486;4.680;2023-08-12T00:50:00;48.31;47.26;49.49;;
69615;Laerm;56821;52.486;4.680;2023-08-12T00:50:10;48.35;47.20;49.29;;
69615;Laerm;56821;52.486;4.680;2023-08-12T00:50:22;48.35;47.23;49.46;;
69615;Laerm;56821;52.486;4.680;2023-08-12T00:50:32;48.36;47.21;49.20;;
69615;Laerm;56821;52.486;4.680;2023-08-12T00:50:43;48.29;47.23;49.18;;
69615;Laerm;56821;52.486;4.680;2023-08-12T00:50:53;48.34;47.14;49.20;;
69615;Laerm;56821;52.486;4.680;2023-08-12T00:51:03;48.25;47.11;49.28;;
69615;Laerm;56821;52.486;4.680;2023-08-12T00:51:15;48.33;47.31;49.18;;
69615;Laerm;56821;52.486;4.680;2023-08-12T00:51:25;48.32;47.11;49.20;;
69615;Laerm;56821;52.486;4.680;2023-08-12T00:51:36;48.28;47.34;49.28;;
69615;Laerm;56821;52.486;4.680;2023-08-12T00:51:49;48.29;47.23;49.23;;
69615;Laerm;56821;52.486;4.680;2023-08-12T00:51:59;48.28;47.28;49.23;;
69615;Laerm;56821;52.486;4.680;2023-08-12T00:52:10;48.28;47.27;49.45;;
69615;Laerm;56821;52.486;4.680;2023-08-12T00:52:20;48.26;47.31;49.35;;
69615;Laerm;56821;52.486;4.680;2023-08-12T00:52:31;48.26;47.20;49.32;;
69615;Laerm;56821;52.486;4.680;2023-08-12T00:52:41;48.33;47.23;49.36;;
69615;Laerm;56821;52.486;4.680;2023-08-12T00:52:51;48.28;47.08;50.09;;
69615;Laerm;56821;52.486;4.680;2023-08-12T00:53:02;48.31;47.15;49.32;;
69615;Laerm;56821;52.486;4.680;2023-08-12T00:53:12;48.33;47.30;49.35;;
69615;Laerm;56821;52.486;4.680;2023-08-12T00:53:23;48.32;47.33;49.43;;
69615;Laerm;56821;52.486;4.680;2023-08-12T00:53:33;48.33;47.25;49.37;;
69615;Laerm;56821;52.486;4.680;2023-08-12T00:53:44;48.28;47.04;49.17;;
69615;Laerm;56821;52.486;4.680;2023-08-12T00:53:57;48.26;47.41;49.37;;
69615;Laerm;56821;52.486;4.680;2023-08-12T00:54:08;48.29;47.25;49.43;;
69615;Laerm;56821;52.486;4.680;2023-08-12T00:54:19;48.25;47.28;49.21;;
69615;Laerm;56821;52.486;4.680;2023-08-12T00:54:31;48.28;47.19;49.14;;
69615;Laerm;56821;52.486;4.680;2023-08-12T00:54:41;48.20;47.28;49.23;;
69615;Laerm;56821;52.486;4.680;2023-08-12T00:54:52;48.22;47.37;49.09;;
69615;Laerm;56821;52.486;4.680;2023-08-12T00:55:02;48.19;47.20;49.12;;
69615;Laerm;56821;52.486;4.680;2023-08-12T00:55:13;48.17;46.88;49.28;;
69615;Laerm;56821;52.486;4.680;2023-08-12T00:55:23;48.19;47.10;49.37;;
69615;Laerm;56821;52.486;4.680;2023-08-12T00:55:33;48.27;47.41;49.32;;
69615;Laerm;56821;52.486;4.680;2023-08-12T00:55:44;48.25;47.18;49.30;;
69615;Laerm;56821;52.486;4.680;2023-08-12T00:55:55;48.26;47.11;49.09;;
69615;Laerm;56821;52.486;4.680;2023-08-12T00:56:05;48.22;47.06;49.30;;
69615;Laerm;56821;52.486;4.680;2023-08-12T00:56:15;48.27;47.37;49.19;;
69615;Laerm;56821;52.486;4.680;2023-08-12T00:56:26;48.27;47.38;49.22;;
69615;Laerm;56821;52.486;4.680;2023-08-12T00:56:37;48.23;47.34;49.19;;
69615;Laerm;56821;52.486;4.680;2023-08-12T00:56:50;48.26;47.18;49.25;;
69615;Laerm;56821;52.486;4.680;2023-08-12T00:57:00;48.21;47.26;49.24;;
69615;Laerm;56821;52.486;4.680;2023-08-12T00:57:11;48.22;47.27;49.28;;
69615;Laerm;56821;52.486;4.680;2023-08-12T00:57:21;48.22;46.86;49.09;;
69615;Laerm;56821;52.486;4.680;2023-08-12T00:57:31;48.23;46.82;49.29;;
69615;Laerm;56821;52.486;4.680;2023-08-12T00:57:42;48.19;46.94;49.01;;
69615;Laerm;56821;52.486;4.680;2023-08-12T00:57:52;48.23;47.11;49.21;;
69615;Laerm;56821;52.486;4.680;2023-08-12T00:58:03;48.27;47.11;49.66;;
69615;Laerm;56821;52.486;4.680;2023-08-12T00:58:13;48.28;47.40;49.23;;
69615;Laerm;56821;52.486;4.680;2023-08-12T00:58:24;48.30;47.08;49.54;;
69615;Laerm;56821;52.486;4.680;2023-08-12T00:58:34;48.14;47.07;49.32;;
69615;Laerm;56821;52.486;4.680;2023-08-12T00:58:45;47.76;46.88;48.97;;
69615;Laerm;56821;52.486;4.680;2023-08-12T00:58:56;48.01;46.87;49.26;;
69615;Laerm;56821;52.486;4.680;2023-08-12T00:59:07;48.27;47.40;49.09;;